Latest Weather Observations for Flinders Reef

IDQ60801

Issued at 7:32 pm EST Sunday 5 July 2015 (issued every 30 minutes, with the page automatically refreshed every 10 minutes)

About weather observations | Map of weather stations | Latest weather observations for QLD | Other Formats
Station Details ID: 200783 Name: FLINDERS REEF Lat: -17.72 Lon: 148.45 Height: 2.6 m
Data from the previous 72 hours. | See also: Recent months at Flinders Reef
Date/Time
EST
Temp
°C
App
Temp
°C
Dew
Point
Rel
Hum
%
Delta-T
°C
Wind Press
QNH
hPa
Press
MSL
hPa
Rain
since 9 am
mm
Dir
 
Spd
km/h
Gust
km/h
Spd
kts
Gust
kts
05/07:30pm - - - - - SE 33 39 18 21 1016.9 - -
05/07:24pm - - - - - ESE 33 37 18 20 1016.9 1016.8 -
05/07:00pm - - - - - SE 32 39 17 21 1016.7 - -
05/06:30pm - - - - - SE 28 37 15 20 1016.4 - -
05/06:24pm - - - - - SE 35 - 19 - - 1016.2 -
05/06:00pm - - - - - ESE 32 37 17 20 1016.1 - -
05/05:30pm - - - - - ESE 32 37 17 20 1015.9 - -
05/05:24pm - - - - - ESE 32 - 17 - - 1015.8 -
05/05:00pm - - - - - ESE 32 37 17 20 1015.7 - -
05/04:30pm - - - - - ESE 30 37 16 20 1015.7 - -
05/04:24pm - - - - - ESE 32 - 17 - - 1015.5 -
05/04:00pm - - - - - SE 30 35 16 19 1015.6 - -
05/03:30pm - - - - - ESE 30 39 16 21 1015.4 - -
05/03:24pm - - - - - SE 30 - 16 - - 1015.4 -
05/03:00pm - - - - - ESE 30 35 16 19 1015.5 - -
05/02:30pm - - - - - ESE 28 32 15 17 1015.8 - -
05/02:24pm - - - - - ESE 28 - 15 - - 1015.7 -
05/02:00pm - - - - - ESE 28 32 15 17 1015.9 - -
05/01:30pm - - - - - E 19 24 10 13 1016.2 - -
05/01:24pm - - - - - E 22 - 12 - - 1016.2 -
05/01:00pm - - - - - ESE 17 22 9 12 1016.6 - -
05/12:30pm - - - - - ESE 19 35 10 19 1017.1 - -
05/12:24pm - - - - - ESE 35 - 19 - - 1017.2 -
05/12:00pm - - - - - E 22 37 12 20 1017.4 - -
05/11:30am - - - - - E 24 30 13 16 1017.7 - -
05/11:24am - - - - - E 26 - 14 - - 1017.6 -
05/11:00am - - - - - ESE 26 30 14 16 1018.0 - -
05/10:30am - - - - - ESE 32 35 17 19 1018.2 - -
05/10:24am - - - - - ESE 33 - 18 - - 1018.0 -
05/10:00am - - - - - ESE 32 35 17 19 1018.3 - -
05/09:30am - - - - - ESE 30 35 16 19 1018.1 - -
05/09:24am - - - - - ESE 30 - 16 - - 1018.0 -
05/09:00am - - - - - E 35 39 19 21 1018.0 - -
05/08:30am - - - - - SE 30 41 16 22 1017.8 - -
05/08:24am - - - - - SE 32 - 17 - - 1017.6 -
05/08:00am - - - - - SE 32 35 17 19 1017.6 - -
05/07:30am - - - - - SE 30 39 16 21 1017.5 - -
05/07:24am - - - - - SE 32 - 17 - - 1017.3 -
05/07:00am - - - - - ESE 32 41 17 22 1017.1 - -
05/06:30am - - - - - SE 33 41 18 22 1017.0 - -
05/06:24am - - - - - SE 33 - 18 - - 1016.9 -
05/06:00am - - - - - SE 33 39 18 21 1016.6 - -
05/05:30am - - - - - SE 33 43 18 23 1016.4 - -
05/05:24am - - - - - SE 35 - 19 - - 1016.2 -
05/05:00am - - - - - ESE 35 43 19 23 1016.1 - -
05/04:30am - - - - - SE 35 41 19 22 1015.9 - -
05/04:24am - - - - - SE 33 - 18 - - 1015.8 -
05/04:00am - - - - - SE 33 41 18 22 1015.9 - -
05/03:30am - - - - - SE 35 43 19 23 1015.8 - -
05/03:24am - - - - - SE 35 - 19 - - 1015.7 -
05/03:00am - - - - - SE 37 44 20 24 1015.7 - -
05/02:30am - - - - - SE 39 43 21 23 1015.9 - -
05/02:24am - - - - - SE 39 - 21 - - 1015.9 -
05/02:00am - - - - - ESE 37 44 20 24 1016.2 - -
05/01:30am - - - - - ESE 39 46 21 25 1016.3 - -
05/01:24am - - - - - ESE 39 - 21 - - 1016.3 -
05/01:00am - - - - - ESE 39 44 21 24 1016.4 - -
05/12:30am - - - - - ESE 39 44 21 24 1016.6 - -
05/12:24am - - - - - ESE 39 - 21 - - 1016.6 -
05/12:00am - - - - - ESE 39 44 21 24 1016.8 - -
 
Date/Time
EST
Temp
°C
App
Temp
°C
Dew
Point
Rel
Hum
%
Delta-T
°C
Wind Press
QNH
hPa
Press
MSL
hPa
Rain
since 9 am
mm
Dir
 
Spd
km/h
Gust
km/h
Spd
kts
Gust
kts
04/11:30pm - - - - - ESE 37 43 20 23 1017.1 - -
04/11:24pm - - - - - ESE 37 - 20 - - 1017.1 -
04/11:00pm - - - - - ESE 37 44 20 24 1017.4 - -
04/10:30pm - - - - - ESE 37 43 20 23 1017.4 - -
04/10:24pm - - - - - ESE 33 - 18 - - 1017.4 -
04/10:00pm - - - - - E 33 43 18 23 1017.5 - -
04/09:30pm - - - - - E 26 39 14 21 1017.6 - -
04/09:24pm - - - - - ENE 32 - 17 - - 1017.6 -
04/09:07pm - - - - - E 39 43 21 23 1017.6 - -
04/09:00pm - - - - - ESE 33 43 18 23 1017.6 - -
04/08:48pm - - - - - ESE 43 50 23 27 1017.5 - -
04/08:30pm - - - - - SE 30 35 16 19 1017.3 - -
04/08:24pm - - - - - ESE 30 - 16 - - 1017.1 -
04/08:00pm - - - - - ESE 28 33 15 18 1017.2 - -
04/07:30pm - - - - - SE 32 35 17 19 1016.9 - -
04/07:24pm - - - - - SE 33 - 18 - - 1016.8 -
04/07:00pm - - - - - SE 35 39 19 21 1016.7 - -
04/06:30pm - - - - - SE 33 43 18 23 1016.4 - -
04/06:24pm - - - - - SE 24 - 13 - - 1016.3 -
04/06:00pm - - - - - ESE 22 26 12 14 1016.3 - -
04/05:30pm - - - - - ESE 22 28 12 15 1016.1 - -
04/05:24pm - - - - - ESE 22 - 12 - - 1015.9 -
04/05:00pm - - - - - ESE 24 28 13 15 1015.8 - -
04/04:30pm - - - - - SE 26 32 14 17 1015.5 - -
04/04:24pm - - - - - ESE 26 - 14 - - 1015.4 -
04/04:00pm - - - - - ESE 24 28 13 15 1015.4 - -
04/03:30pm - - - - - ESE 26 30 14 16 1015.4 - -
04/03:24pm - - - - - ESE 26 - 14 - - 1015.4 -
04/03:00pm - - - - - ESE 24 30 13 16 1015.5 - -
04/02:30pm - - - - - ESE 24 30 13 16 1015.8 - -
04/02:24pm - - - - - ESE 26 - 14 - - 1015.7 -
04/02:00pm - - - - - SE 26 32 14 17 1016.0 - -
04/01:30pm - - - - - SE 24 33 13 18 1016.2 - -
04/01:24pm - - - - - ESE 26 - 14 - - 1016.2 -
04/01:00pm - - - - - ESE 30 39 16 21 1016.7 - -
04/12:30pm - - - - - SE 32 39 17 21 1017.1 - -
04/12:24pm - - - - - SE 32 - 17 - - 1017.1 -
04/12:00pm - - - - - ESE 30 35 16 19 1017.5 - -
04/11:30am - - - - - ESE 26 32 14 17 1017.8 - -
04/11:24am - - - - - ESE 24 - 13 - - 1017.8 -
04/11:00am - - - - - E 24 30 13 16 1018.1 - -
04/10:30am - - - - - E 26 32 14 17 1018.2 - -
04/10:24am - - - - - ESE 32 - 17 - - 1018.2 -
04/10:00am - - - - - E 22 26 12 14 1018.4 - -
04/09:30am - - - - - E 26 33 14 18 1018.2 - -
04/09:24am - - - - - E 30 - 16 - - 1018.1 -
04/09:00am - - - - - E 32 37 17 20 1018.0 - -
04/08:30am - - - - - E 32 39 17 21 1017.6 - -
04/08:24am - - - - - E 33 - 18 - - 1017.4 -
04/08:00am - - - - - ESE 32 39 17 21 1017.3 - -
04/07:30am - - - - - ESE 37 44 20 24 1017.1 - -
04/07:24am - - - - - ESE 35 - 19 - - 1017.0 -
04/07:00am - - - - - ESE 32 37 17 20 1017.0 - -
04/06:30am - - - - - ESE 33 37 18 20 1016.8 - -
04/06:24am - - - - - ESE 33 - 18 - - 1016.7 -
04/06:00am - - - - - SE 32 41 17 22 1016.7 - -
04/05:30am - - - - - ESE 28 33 15 18 1016.4 - -
04/05:24am - - - - - ESE 30 - 16 - - 1016.3 -
04/05:00am - - - - - ESE 30 37 16 20 1016.4 - -
04/04:30am - - - - - SE 33 39 18 21 1016.3 - -
04/04:24am - - - - - ESE 35 - 19 - - 1016.2 -
04/04:00am - - - - - ESE 39 46 21 25 1016.1 - -
04/03:30am - - - - - ESE 39 46 21 25 1016.2 - -
04/03:24am - - - - - ESE 41 - 22 - - 1016.1 -
04/03:00am - - - - - SE 41 52 22 28 1016.4 - -
04/02:30am - - - - - SE 44 52 24 28 1016.6 - -
04/02:24am - - - - - SE 44 - 24 - - 1016.6 -
04/02:00am - - - - - ESE 41 48 22 26 1016.9 - -
04/01:30am - - - - - SE 44 52 24 28 1016.9 - -
04/01:24am - - - - - SE 43 - 23 - - 1016.8 -
04/01:00am - - - - - SE 44 50 24 27 1017.1 - -
04/12:30am - - - - - SE 44 54 24 29 1017.1 - -
04/12:24am - - - - - ESE 43 - 23 - - 1017.1 -
04/12:00am - - - - - ESE 41 46 22 25 1017.4 - -
 
Date/Time
EST
Temp
°C
App
Temp
°C
Dew
Point
Rel
Hum
%
Delta-T
°C
Wind Press
QNH
hPa
Press
MSL
hPa
Rain
since 9 am
mm
Dir
 
Spd
km/h
Gust
km/h
Spd
kts
Gust
kts
03/11:30pm - - - - - ESE 39 46 21 25 1017.6 - -
03/11:24pm - - - - - ESE 41 - 22 - - 1017.5 -
03/11:00pm - - - - - SE 35 39 19 21 1018.1 - -
03/10:30pm - - - - - SE 30 35 16 19 1018.4 - -
03/10:24pm - - - - - SE 32 - 17 - - 1018.4 -
03/10:00pm - - - - - SE 33 39 18 21 1018.6 - -
03/09:30pm - - - - - SE 39 46 21 25 1018.5 - -
03/09:24pm - - - - - SE 37 - 20 - - 1018.4 -
03/09:00pm - - - - - SE 41 44 22 24 1018.3 - -
03/08:30pm - - - - - SE 41 46 22 25 1018.0 - -
03/08:24pm - - - - - SE 41 - 22 - - 1017.8 -
03/08:00pm - - - - - SSE 39 48 21 26 1017.6 - -
03/07:30pm - - - - - SE 39 46 21 25 1017.4 - -
03/07:24pm - - - - - SE 39 - 21 - - 1017.2 -
03/07:00pm - - - - - SE 39 46 21 25 1017.1 - -
03/06:30pm - - - - - SE 39 46 21 25 1016.9 - -
03/06:24pm - - - - - SE 39 - 21 - - 1016.7 -
03/06:00pm - - - - - SSE 39 44 21 24 1016.6 - -
03/05:30pm - - - - - SSE 39 44 21 24 1016.4 - -
03/05:24pm - - - - - SSE 39 - 21 - - 1016.2 -
03/05:00pm - - - - - SSE 41 50 22 27 1016.1 - -
03/04:30pm - - - - - SSE 44 52 24 28 1015.8 - -
03/04:24pm - - - - - SSE 46 - 25 - - 1015.6 -
03/04:00pm - - - - - SSE 44 54 24 29 1015.5 - -
03/03:30pm - - - - - SSE 46 54 25 29 1015.2 - -
03/03:24pm - - - - - SSE 44 - 24 - - 1015.2 -
03/03:00pm - - - - - SSE 43 48 23 26 1015.3 - -
03/02:30pm - - - - - SSE 39 46 21 25 1015.8 - -
03/02:24pm - - - - - SSE 39 - 21 - - 1015.7 -
03/02:00pm - - - - - SSE 41 46 22 25 1015.9 - -
03/01:30pm - - - - - SSE 39 48 21 26 1016.2 - -
03/01:24pm - - - - - SE 39 - 21 - - 1016.1 -
03/01:00pm - - - - - SE 35 43 19 23 1016.5 - -
03/12:30pm - - - - - SSE 35 41 19 22 1016.8 - -
03/12:24pm - - - - - SSE 35 - 19 - - 1016.8 -
03/12:00pm - - - - - SE 33 39 18 21 1017.2 - -
03/11:30am - - - - - SE 37 43 20 23 1017.4 - -
03/11:24am - - - - - SE 37 - 20 - - 1017.4 -
03/11:00am - - - - - SE 33 41 18 22 1017.7 - -
03/10:30am - - - - - SE 33 41 18 22 1017.9 - -
03/10:24am - - - - - SE 33 - 18 - - 1017.9 -
03/10:00am - - - - - SE 33 43 18 23 1018.0 - -
03/09:30am - - - - - SE 35 41 19 22 1018.1 - -
03/09:24am - - - - - SE 33 - 18 - - 1018.0 -
03/09:00am - - - - - SE 30 37 16 20 1018.2 - -
03/08:30am - - - - - SE 30 39 16 21 1017.8 - -
03/08:24am - - - - - SE 32 - 17 - - 1017.7 -
03/08:00am - - - - - SE 35 41 19 22 1017.6 - -
03/07:30am - - - - - SE 33 41 18 22 1017.2 - -
03/07:24am - - - - - SE 33 - 18 - - 1017.0 -
03/07:00am - - - - - SE 35 43 19 23 1016.8 - -
03/06:30am - - - - - SSE 37 44 20 24 1016.6 - -
03/06:24am - - - - - SSE 37 - 20 - - 1016.4 -
03/06:00am - - - - - SSE 35 44 19 24 1016.3 - -
03/05:30am - - - - - SSE 37 43 20 23 1016.0 - -
03/05:24am - - - - - SSE 37 - 20 - - 1015.9 -
03/05:00am - - - - - SSE 37 48 20 26 1015.8 - -
03/04:30am - - - - - SSE 35 43 19 23 1015.7 - -
03/04:24am - - - - - SSE 37 - 20 - - 1015.7 -
03/04:00am - - - - - SSE 35 43 19 23 1015.9 - -
03/03:30am - - - - - SSE 35 43 19 23 1015.9 - -
03/03:24am - - - - - SSE 35 - 19 - - 1015.9 -
03/03:00am - - - - - SSE 37 46 20 25 1016.3 - -
03/02:30am - - - - - SE 37 44 20 24 1016.5 - -
03/02:24am - - - - - SE 37 - 20 - - 1016.4 -
03/02:00am - - - - - SE 37 44 20 24 1016.6 - -
03/01:30am - - - - - SE 35 43 19 23 1016.9 - -
03/01:24am - - - - - SE 35 - 19 - - 1016.9 -
03/01:00am - - - - - SE 35 41 19 22 1017.3 - -
03/12:30am - - - - - SE 33 39 18 21 1017.5 - -
03/12:24am - - - - - SE 33 - 18 - - 1017.4 -
03/12:00am - - - - - SE 32 39 17 21 1017.6 - -
 
Date/Time
EST
Temp
°C
App
Temp
°C
Dew
Point
Rel
Hum
%
Delta-T
°C
Wind Press
QNH
hPa
Press
MSL
hPa
Rain
since 9 am
mm
Dir
 
Spd
km/h
Gust
km/h
Spd
kts
Gust
kts
02/11:30pm - - - - - SE 32 39 17 21 1017.7 - -
02/11:24pm - - - - - SSE 32 - 17 - - 1017.6 -
02/11:00pm - - - - - SSE 33 39 18 21 1018.0 - -
02/10:30pm - - - - - SE 32 39 17 21 1018.5 - -
02/10:24pm - - - - - SE 32 - 17 - - 1018.4 -
02/10:00pm - - - - - SE 30 35 16 19 1018.7 - -
02/09:30pm - - - - - SE 32 37 17 20 1018.7 - -
02/09:24pm - - - - - SE 32 - 17 - - 1018.6 -
02/09:00pm - - - - - SE 32 39 17 21 1018.6 - -
02/08:30pm - - - - - SE 35 41 19 22 1018.4 - -
02/08:24pm - - - - - SE 35 - 19 - - 1018.2 -
02/08:00pm - - - - - SSE 35 43 19 23 1018.3 - -

Other Formats:

Comma delimited format used in spreadsheet applications
http://www.bom.gov.au/fwo/IDQ60801/IDQ60801.94290.axf

JavaScript Object Notation format (JSON) in row-major order
http://www.bom.gov.au/fwo/IDQ60801/IDQ60801.94290.json